Time;durP1;ratioP1;P1;durP2;ratioP2;P2;SDS_P1;SDS_P2;PMS_P1;PMS_P2;Temp;Humidity;BMP_temperature;BMP_pressure;BME280_temperature;BME280_humidity;BME280_pressure;Samples;Min_cycle;Max_cycle;Signal;HPM_P1;HPM_P2
2023/02/06 00:00:59;;;;;;;;;;;;;;;2.13;51.17;99512.44;4975647;28;19923;-71
2023/02/06 00:03:24;;;;;;;;;;;;;;;2.12;50.41;99515.88;4992596;28;19925;-71
2023/02/06 00:05:53;;;;;;;;;;;;;;;2.10;51.18;99510.81;4975443;28;19944;-71
2023/02/06 00:08:18;;;;;;;;;;;;;;;2.08;50.75;99515.13;4975757;28;20167;-70
2023/02/06 00:10:44;;;;;;;;;;;;;;;2.06;50.17;99495.47;4975283;28;19922;-70
2023/02/06 00:13:09;;;;;;;;;;;;;;;2.05;50.66;99509.25;4975376;28;19929;-71
2023/02/06 00:15:34;;;;;;;;;;;;;;;2.04;51.00;99492.94;4992592;28;20320;-70
2023/02/06 00:17:59;;;;;;;;;;;;;;;2.04;50.76;99512.69;4959123;28;19918;-73
2023/02/06 00:20:25;;;;;;;;;;;;;;;2.02;50.83;99507.59;4975553;28;19981;-71
2023/02/06 00:22:50;;;;;;;;;;;;;;;2.01;50.44;99510.19;4960737;28;19961;-71
2023/02/06 00:25:15;;;;;;;;;;;;;;;1.99;50.44;99510.25;4963234;28;19924;-71
2023/02/06 00:27:41;;;;;;;;;;;;;;;1.97;51.12;99506.88;4962787;28;20377;-71
2023/02/06 00:30:06;;;;;;;;;;;;;;;1.93;50.74;99523.28;4979228;28;20087;-71
2023/02/06 00:32:33;;;;;;;;;;;;;;;1.91;51.15;99515.59;4962613;28;19918;-70
2023/02/06 00:34:58;;;;;;;;;;;;;;;1.90;51.26;99520.81;4962113;28;19924;-70
2023/02/06 00:37:23;;;;;;;;;;;;;;;1.89;50.57;99509.66;4978985;28;19917;-70
2023/02/06 00:39:49;;;;;;;;;;;;;;;1.87;50.57;99516.59;4978596;28;20411;-70
2023/02/06 00:42:14;;;;;;;;;;;;;;;1.85;51.33;99520.09;4978744;28;19924;-70
2023/02/06 00:44:39;;;;;;;;;;;;;;;1.83;50.20;99511.56;4962233;28;19980;-70
2023/02/06 00:47:04;;;;;;;;;;;;;;;1.81;51.35;99511.63;4962266;28;20398;-70
2023/02/06 00:49:30;;;;;;;;;;;;;;;1.79;51.52;99497.97;4971839;28;19979;-71
2023/02/06 00:51:55;;;;;;;;;;;;;;;1.79;50.49;99513.41;4981741;28;20024;-71
2023/02/06 00:54:20;;;;;;;;;;;;;;;1.73;50.49;99501.53;4996970;28;19978;-71
2023/02/06 00:56:46;;;;;;;;;;;;;;;1.74;51.21;99505.81;4981788;28;20261;-71
2023/02/06 00:59:11;;;;;;;;;;;;;;;1.73;51.35;99511.81;4998206;28;19914;-70
2023/02/06 01:01:36;;;;;;;;;;;;;;;1.72;51.22;99517.03;4997743;28;19956;-70
2023/02/06 01:04:02;;;;;;;;;;;;;;;1.70;50.89;99514.50;4981117;28;20370;-70
2023/02/06 01:06:27;;;;;;;;;;;;;;;1.68;51.16;99508.53;4997998;28;19917;-70
2023/02/06 01:08:52;;;;;;;;;;;;;;;1.68;50.71;99497.41;4981603;28;19924;-69
2023/02/06 01:11:19;;;;;;;;;;;;;;;1.66;50.66;99494.88;4997982;28;19972;-70
2023/02/06 01:13:44;;;;;;;;;;;;;;;1.62;51.14;99496.69;4997699;28;19922;-70
2023/02/06 01:16:10;;;;;;;;;;;;;;;1.60;51.06;99487.34;4997602;28;20408;-70
2023/02/06 01:18:36;;;;;;;;;;;;;;;1.57;51.20;99495.97;4981125;28;19917;-70
2023/02/06 01:21:01;;;;;;;;;;;;;;;1.57;51.40;99483.09;4997718;28;19925;-70
2023/02/06 01:23:26;;;;;;;;;;;;;;;1.56;51.75;99473.69;4981210;28;19962;-70
2023/02/06 01:25:52;;;;;;;;;;;;;;;1.54;51.92;99462.59;4996996;28;19917;-71
2023/02/06 01:28:17;;;;;;;;;;;;;;;1.54;51.83;99467.75;4996786;28;19918;-72
2023/02/06 01:30:42;;;;;;;;;;;;;;;1.52;51.85;99451.50;4997189;28;19917;-71
2023/02/06 01:33:07;;;;;;;;;;;;;;;1.50;51.60;99458.41;4980862;28;19928;-71
2023/02/06 01:35:33;;;;;;;;;;;;;;;1.48;51.39;99455.03;4996199;28;19918;-71
2023/02/06 01:37:58;;;;;;;;;;;;;;;1.45;51.53;99449.97;4997888;28;19929;-71
2023/02/06 01:40:23;;;;;;;;;;;;;;;1.44;51.10;99450.88;4997446;28;20377;-71
2023/02/06 01:42:49;;;;;;;;;;;;;;;1.45;51.10;99457.69;4980735;28;20016;-70
2023/02/06 01:45:20;;;;;;;;;;;;;;;1.43;51.53;99456.91;5014706;28;20008;-70
2023/02/06 01:47:45;;;;;;;;;;;;;;;1.41;50.54;99449.22;5014472;28;19922;-71
2023/02/06 01:50:11;;;;;;;;;;;;;;;1.41;51.83;99426.06;4996938;28;19921;-71
2023/02/06 01:52:36;;;;;;;;;;;;;;;1.42;51.59;99458.66;4981040;28;19917;-71
2023/02/06 01:55:01;;;;;;;;;;;;;;;1.43;52.46;99446.63;4996801;28;19921;-70
2023/02/06 01:57:27;;;;;;;;;;;;;;;1.46;51.62;99456.00;5014298;28;20387;-71
2023/02/06 01:59:53;;;;;;;;;;;;;;;1.42;51.94;99447.50;4996654;28;20025;-70
2023/02/06 02:02:18;;;;;;;;;;;;;;;1.41;51.53;99443.25;4980761;28;19921;-71
2023/02/06 02:04:44;;;;;;;;;;;;;;;1.39;51.71;99433.00;4976921;28;20316;-70
2023/02/06 02:07:22;;;;;;;;;;;;;;;1.37;50.62;99421.88;4976945;28;20455;-72
2023/02/06 02:09:48;;;;;;;;;;;;;;;1.37;50.99;99409.03;4961020;28;19918;-69
2023/02/06 02:12:13;;;;;;;;;;;;;;;1.33;50.28;99417.72;4976869;28;19945;-70
2023/02/06 02:14:38;;;;;;;;;;;;;;;1.32;50.54;99423.75;4977012;28;19922;-70
2023/02/06 02:17:22;;;;;;;;;;;;;;;1.30;50.08;99425.53;4976969;28;19917;-71
2023/02/06 02:20:07;;;;;;;;;;;;;;;1.31;50.86;99423.78;4976816;28;20008;-70
2023/02/06 02:22:50;;;;;;;;;;;;;;;1.30;50.94;99417.81;4977256;28;19922;-70
2023/02/06 02:25:18;;;;;;;;;;;;;;;1.31;50.46;99441.81;4960737;28;19925;-70
2023/02/06 02:27:49;;;;;;;;;;;;;;;1.32;50.35;99420.34;4993864;28;20007;-70
2023/02/06 02:30:17;;;;;;;;;;;;;;;1.30;49.51;99422.09;4994072;28;20367;-70
2023/02/06 02:32:43;;;;;;;;;;;;;;;1.27;49.51;99431.59;4976876;28;19921;-70
2023/02/06 02:35:10;;;;;;;;;;;;;;;1.27;49.55;99425.63;4976596;28;20278;-70
2023/02/06 02:37:40;;;;;;;;;;;;;;;1.29;49.29;99439.28;4976647;28;20016;-71
2023/02/06 02:40:09;;;;;;;;;;;;;;;1.30;49.40;99420.38;4976743;28;19972;-71
2023/02/06 02:42:55;;;;;;;;;;;;;;;1.29;49.42;99433.28;4960291;28;19976;-70
2023/02/06 02:45:24;;;;;;;;;;;;;;;1.31;49.07;99428.94;4952914;28;19929;-68
2023/02/06 02:47:57;;;;;;;;;;;;;;;1.33;49.77;99440.03;4953109;29;19918;-70
2023/02/06 02:50:23;;;;;;;;;;;;;;;1.34;49.20;99441.72;4936701;29;19926;-71
2023/02/06 02:52:48;;;;;;;;;;;;;;;1.37;49.42;99451.94;4936702;29;19918;-71
2023/02/06 02:55:14;;;;;;;;;;;;;;;1.37;49.46;99442.47;4936307;29;19982;-70
2023/02/06 02:57:40;;;;;;;;;;;;;;;1.40;49.35;99444.97;4936300;29;19946;-69
2023/02/06 03:00:05;;;;;;;;;;;;;;;1.42;49.34;99452.63;4952940;29;20378;-69
2023/02/06 03:02:32;;;;;;;;;;;;;;;1.43;49.43;99447.44;4952871;29;20001;-69
2023/02/06 03:05:01;;;;;;;;;;;;;;;1.44;49.46;99453.47;4952625;29;19922;-69
2023/02/06 03:07:35;;;;;;;;;;;;;;;1.47;49.07;99460.22;4952498;29;19922;-69
2023/02/06 03:10:20;;;;;;;;;;;;;;;1.48;49.25;99461.94;4936581;29;19977;-70
2023/02/06 03:12:51;;;;;;;;;;;;;;;1.50;48.84;99449.84;4952456;29;20013;-69
2023/02/06 03:15:25;;;;;;;;;;;;;;;1.53;49.25;99431.75;4936494;29;19929;-70
2023/02/06 03:17:52;;;;;;;;;;;;;;;1.53;48.83;99454.91;4945371;29;20430;-70
2023/02/06 03:20:18;;;;;;;;;;;;;;;1.54;48.54;99448.91;4917476;29;19927;-70
2023/02/06 03:22:43;;;;;;;;;;;;;;;1.54;47.88;99459.19;4953917;28;20435;-70
2023/02/06 03:25:12;;;;;;;;;;;;;;;1.53;48.17;99463.47;4993402;28;20036;-70
2023/02/06 03:27:38;;;;;;;;;;;;;;;1.54;48.00;99466.91;4975764;28;20009;-71
2023/02/06 03:30:04;;;;;;;;;;;;;;;1.54;48.17;99444.59;4959956;28;19961;-71
2023/02/06 03:32:33;;;;;;;;;;;;;;;1.54;48.34;99461.75;4959632;28;20436;-71
2023/02/06 03:34:58;;;;;;;;;;;;;;;1.55;48.14;99454.00;4975921;28;20404;-70
2023/02/06 03:37:23;;;;;;;;;;;;;;;1.57;48.24;99464.25;4993272;28;19953;-71
2023/02/06 03:39:49;;;;;;;;;;;;;;;1.57;48.37;99470.22;4959746;28;19987;-71
2023/02/06 03:42:14;;;;;;;;;;;;;;;1.59;48.07;99462.47;4993444;28;19976;-70
2023/02/06 03:44:42;;;;;;;;;;;;;;;1.60;48.52;99475.28;4959870;28;19918;-70
2023/02/06 03:47:07;;;;;;;;;;;;;;;1.60;48.33;99483.03;4959783;28;19928;-70
2023/02/06 03:49:32;;;;;;;;;;;;;;;1.62;48.73;99467.53;4976312;28;20285;-69
2023/02/06 03:52:12;;;;;;;;;;;;;;;1.63;48.88;99444.31;4959142;28;19972;-70
2023/02/06 03:54:38;;;;;;;;;;;;;;;1.65;48.75;99457.16;4975403;28;19921;-70
2023/02/06 03:57:04;;;;;;;;;;;;;;;1.65;48.21;99458.91;4959652;28;20035;-70
2023/02/06 03:59:29;;;;;;;;;;;;;;;1.66;48.49;99470.84;4963419;28;20388;-70
2023/02/06 04:01:56;;;;;;;;;;;;;;;1.68;48.51;99482.81;4979592;28;20005;-70
2023/02/06 04:04:27;;;;;;;;;;;;;;;1.69;48.65;99481.91;4979480;28;19914;-69
2023/02/06 04:06:53;;;;;;;;;;;;;;;1.70;49.13;99473.31;4964038;28;19921;-70
2023/02/06 04:09:18;;;;;;;;;;;;;;;1.72;49.38;99488.72;4963307;28;20274;-70
2023/02/06 04:11:43;;;;;;;;;;;;;;;1.71;48.88;99464.72;4963127;28;19996;-70
2023/02/06 04:14:09;;;;;;;;;;;;;;;1.71;49.09;99481.84;4979112;28;19930;-70
2023/02/06 04:16:34;;;;;;;;;;;;;;;1.69;49.06;99478.50;4996753;28;19976;-69
2023/02/06 04:18:59;;;;;;;;;;;;;;;1.71;49.91;99480.16;4979214;28;19968;-69
2023/02/06 04:21:24;;;;;;;;;;;;;;;1.71;48.93;99489.59;4979601;28;20360;-69
2023/02/06 04:23:50;;;;;;;;;;;;;;;1.68;49.53;99493.09;4962933;28;19924;-70
2023/02/06 04:26:15;;;;;;;;;;;;;;;1.69;49.57;99505.06;4962436;28;19980;-70
2023/02/06 04:28:40;;;;;;;;;;;;;;;1.67;49.15;99493.16;4979415;28;19976;-70
2023/02/06 04:31:05;;;;;;;;;;;;;;;1.70;49.14;99493.06;4996829;28;20332;-69
2023/02/06 04:33:31;;;;;;;;;;;;;;;1.69;49.48;99504.22;4963052;28;19918;-69
2023/02/06 04:35:56;;;;;;;;;;;;;;;1.67;49.39;99486.25;5004483;28;19921;-69
2023/02/06 04:38:21;;;;;;;;;;;;;;;1.68;49.33;99490.53;4982108;28;19918;-70
2023/02/06 04:40:47;;;;;;;;;;;;;;;1.70;49.36;99487.91;4981260;28;20008;-69
2023/02/06 04:43:12;;;;;;;;;;;;;;;1.71;49.13;99497.31;4981340;28;19918;-69
2023/02/06 04:45:37;;;;;;;;;;;;;;;1.71;49.26;99484.44;4998199;28;19918;-69
2023/02/06 04:48:03;;;;;;;;;;;;;;;1.68;49.88;99489.69;4998401;28;19917;-71
2023/02/06 04:50:30;;;;;;;;;;;;;;;1.65;49.24;99511.19;4998112;28;19922;-69
2023/02/06 04:52:56;;;;;;;;;;;;;;;1.65;49.94;99507.78;4998469;28;19976;-69
2023/02/06 04:55:21;;;;;;;;;;;;;;;1.76;56.32;99516.06;4981296;28;19965;-69
2023/02/06 04:57:47;;;;;;;;;;;;;;;1.81;54.75;99538.19;4998106;28;19917;-69
2023/02/06 05:00:13;;;;;;;;;;;;;;;1.80;52.77;99509.91;4981974;28;19983;-69
2023/02/06 05:02:38;;;;;;;;;;;;;;;2.06;66.44;99540.09;4998366;28;20380;-69
2023/02/06 05:05:04;;;;;;;;;;;;;;;2.17;62.17;99512.28;5015441;28;19917;-68
2023/02/06 05:07:29;;;;;;;;;;;;;;;2.43;66.63;99533.03;4982565;28;19921;-70
2023/02/06 05:09:55;;;;;;;;;;;;;;;2.46;61.24;99530.34;4997159;28;20020;-68
2023/02/06 05:12:20;;;;;;;;;;;;;;;2.41;58.41;99540.78;4980775;28;20012;-72
2023/02/06 05:14:45;;;;;;;;;;;;;;;2.46;60.12;99545.81;4981439;28;19918;-68
2023/02/06 05:17:10;;;;;;;;;;;;;;;2.42;58.62;99542.50;4981319;28;19922;-69
2023/02/06 05:19:36;;;;;;;;;;;;;;;2.34;57.42;99526.41;4997709;28;20242;-70
2023/02/06 05:22:01;;;;;;;;;;;;;;;2.29;55.91;99525.69;4993187;28;19987;-70
2023/02/06 05:24:26;;;;;;;;;;;;;;;2.26;55.86;99524.06;4979171;28;20381;-69
2023/02/06 05:26:52;;;;;;;;;;;;;;;2.21;55.11;99533.66;4979680;28;19924;-69
2023/02/06 05:29:17;;;;;;;;;;;;;;;2.15;54.51;99526.09;4981021;28;19917;-69
2023/02/06 05:31:42;;;;;;;;;;;;;;;2.07;53.12;99533.22;4980795;28;19918;-69
2023/02/06 05:34:08;;;;;;;;;;;;;;;2.03;53.30;99531.63;4997368;28;19917;-69
2023/02/06 05:36:33;;;;;;;;;;;;;;;1.99;52.81;99538.56;5014906;28;19921;-69
2023/02/06 05:38:58;;;;;;;;;;;;;;;2.01;53.19;99526.50;4997362;28;20372;-68
2023/02/06 05:41:24;;;;;;;;;;;;;;;2.02;52.87;99520.47;4981047;28;19921;-69
2023/02/06 05:43:49;;;;;;;;;;;;;;;2.04;52.37;99552.19;4997485;28;19972;-69
2023/02/06 05:46:14;;;;;;;;;;;;;;;2.15;52.84;99545.00;4997033;28;19921;-70
2023/02/06 05:48:40;;;;;;;;;;;;;;;2.34;52.10;99536.69;4997192;28;19921;-69
2023/02/06 05:51:05;;;;;;;;;;;;;;;2.45;51.44;99564.72;5014319;28;20038;-70
2023/02/06 05:53:30;;;;;;;;;;;;;;;2.46;50.96;99545.81;4988808;28;19929;-70
2023/02/06 05:55:56;;;;;;;;;;;;;;;2.43;51.74;99561.38;4971963;28;19926;-73
2023/02/06 05:58:21;;;;;;;;;;;;;;;2.40;51.19;99559.72;4996858;28;19940;-70
2023/02/06 06:00:46;;;;;;;;;;;;;;;2.42;51.13;99562.25;4988744;28;20346;-70
2023/02/06 06:03:12;;;;;;;;;;;;;;;2.40;51.08;99551.97;4985330;28;19917;-69
2023/02/06 06:05:37;;;;;;;;;;;;;;;2.63;64.19;99573.66;4990168;28;19918;-69
2023/02/06 06:08:02;;;;;;;;;;;;;;;3.79;73.25;99558.66;5014240;28;19956;-72
2023/02/06 06:10:28;;;;;;;;;;;;;;;4.20;68.62;99565.81;4998003;28;19983;-73
2023/02/06 06:12:53;;;;;;;;;;;;;;;4.38;65.22;99558.28;4980712;28;19918;-69
2023/02/06 06:15:18;;;;;;;;;;;;;;;4.35;62.40;99548.91;4996437;28;19928;-69
2023/02/06 06:17:43;;;;;;;;;;;;;;;4.35;64.35;99544.59;4980292;28;20000;-69
2023/02/06 06:20:09;;;;;;;;;;;;;;;4.60;63.64;99553.13;4996435;28;20384;-69
2023/02/06 06:22:34;;;;;;;;;;;;;;;4.77;65.25;99586.94;4980453;28;19917;-68
2023/02/06 06:25:00;;;;;;;;;;;;;;;4.85;62.04;99558.19;4996765;28;20331;-69
2023/02/06 06:27:25;;;;;;;;;;;;;;;4.86;60.98;99568.47;4996162;28;20384;-68
2023/02/06 06:29:50;;;;;;;;;;;;;;;5.17;66.29;99572.44;5000473;28;19922;-70
2023/02/06 06:32:16;;;;;;;;;;;;;;;5.77;71.38;99569.06;5006845;28;20332;-70
2023/02/06 06:34:41;;;;;;;;;;;;;;;5.95;64.85;99554.50;4998230;28;20326;-69
2023/02/06 06:37:06;;;;;;;;;;;;;;;6.03;60.70;99580.09;4960487;28;20443;-69
2023/02/06 06:39:31;;;;;;;;;;;;;;;6.24;64.98;99571.34;4976438;28;19918;-70
2023/02/06 06:41:57;;;;;;;;;;;;;;;6.38;61.03;99569.91;4960579;28;19921;-68
2023/02/06 06:44:22;;;;;;;;;;;;;;;6.53;59.75;99579.56;4999262;28;19933;-70
2023/02/06 06:46:47;;;;;;;;;;;;;;;6.70;58.49;99563.22;4998576;28;19925;-69
2023/02/06 06:49:13;;;;;;;;;;;;;;;6.93;57.56;99582.91;4994275;28;20340;-69
2023/02/06 06:51:38;;;;;;;;;;;;;;;7.18;57.11;99573.91;4976804;28;19918;-69
2023/02/06 06:54:03;;;;;;;;;;;;;;;7.17;56.63;99577.44;4976342;28;19922;-70
2023/02/06 06:56:28;;;;;;;;;;;;;;;7.79;55.36;99590.78;4976335;28;19929;-68
2023/02/06 06:58:54;;;;;;;;;;;;;;;8.39;54.06;99574.66;4994126;28;19917;-68
2023/02/06 07:01:19;;;;;;;;;;;;;;;9.00;52.85;99588.69;5003608;28;19922;-68
2023/02/06 07:03:47;;;;;;;;;;;;;;;8.95;52.99;99579.44;4995892;28;20292;-69
2023/02/06 07:06:12;;;;;;;;;;;;;;;9.20;63.70;99586.72;4985278;28;19921;-68
2023/02/06 07:08:40;;;;;;;;;;;;;;;10.06;51.69;99586.06;4980422;28;19933;-70
2023/02/06 07:11:09;;;;;;;;;;;;;;;10.09;49.58;99583.28;4983885;28;19922;-71
2023/02/06 07:13:35;;;;;;;;;;;;;;;9.81;49.05;99576.28;4967645;28;19960;-70
2023/02/06 07:16:00;;;;;;;;;;;;;;;10.18;59.91;99576.63;4984803;28;19965;-70
2023/02/06 07:18:25;;;;;;;;;;;;;;;11.33;59.57;99597.28;4985173;28;20392;-71
2023/02/06 07:20:51;;;;;;;;;;;;;;;11.61;53.07;99571.88;4966962;28;20427;-70
2023/02/06 07:23:16;;;;;;;;;;;;;;;11.53;51.07;99594.19;4984278;28;19972;-72
2023/02/06 07:25:41;;;;;;;;;;;;;;;11.41;50.44;99577.50;4982492;28;20327;-70
2023/02/06 07:28:07;;;;;;;;;;;;;;;12.02;49.36;99589.19;4971175;28;19917;-69
2023/02/06 07:30:32;;;;;;;;;;;;;;;11.96;49.42;99597.50;4983107;28;19992;-68
2023/02/06 07:32:57;;;;;;;;;;;;;;;11.59;50.15;99583.31;4995546;28;20360;-70
2023/02/06 07:35:23;;;;;;;;;;;;;;;11.32;49.91;99599.06;4982708;28;20418;-72
2023/02/06 07:37:48;;;;;;;;;;;;;;;11.11;49.89;99584.78;4971142;28;20250;-68
2023/02/06 07:40:13;;;;;;;;;;;;;;;12.49;58.11;99593.75;4983705;28;19926;-70
2023/02/06 07:42:39;;;;;;;;;;;;;;;13.00;57.63;99612.91;4982293;28;19921;-70
2023/02/06 07:45:04;;;;;;;;;;;;;;;13.81;52.69;99615.72;5000479;28;19926;-71
2023/02/06 07:47:30;;;;;;;;;;;;;;;14.16;49.79;99627.94;5001084;28;19917;-71
2023/02/06 07:49:55;;;;;;;;;;;;;;;14.53;55.45;99630.31;4967258;28;19918;-73
2023/02/06 07:52:21;;;;;;;;;;;;;;;14.23;52.29;99629.97;4982148;28;20431;-70
2023/02/06 07:54:46;;;;;;;;;;;;;;;13.91;47.06;99624.56;4981404;28;19928;-70
2023/02/06 07:57:11;;;;;;;;;;;;;;;13.96;44.46;99632.91;4984818;28;20319;-71
2023/02/06 07:59:37;;;;;;;;;;;;;;;14.69;41.44;99633.47;4979099;28;19924;-70
2023/02/06 08:02:02;;;;;;;;;;;;;;;13.89;41.99;99624.66;4966725;28;19918;-70
2023/02/06 08:04:33;;;;;;;;;;;;;;;13.59;41.19;99643.56;4972643;28;19922;-68
2023/02/06 08:06:59;;;;;;;;;;;;;;;13.43;40.55;99638.63;4973060;28;19918;-71
2023/02/06 08:09:24;;;;;;;;;;;;;;;14.04;38.94;99634.94;4971117;28;19944;-70
2023/02/06 08:11:49;;;;;;;;;;;;;;;14.61;37.83;99628.81;4976953;28;19918;-70
2023/02/06 08:14:15;;;;;;;;;;;;;;;15.15;36.26;99634.19;4969300;28;19977;-69
2023/02/06 08:16:40;;;;;;;;;;;;;;;14.78;35.37;99637.97;4976635;28;19941;-69
2023/02/06 08:19:09;;;;;;;;;;;;;;;14.96;34.20;99642.72;4971535;28;20400;-70
2023/02/06 08:21:34;;;;;;;;;;;;;;;15.18;32.84;99655.81;4975011;28;20382;-69
2023/02/06 08:24:00;;;;;;;;;;;;;;;14.70;33.05;99658.75;4967967;28;19952;-70
2023/02/06 08:26:26;;;;;;;;;;;;;;;14.34;32.96;99655.38;4968966;28;19972;-70
2023/02/06 08:28:52;;;;;;;;;;;;;;;14.06;33.36;99659.31;4969000;28;19961;-69
2023/02/06 08:31:18;;;;;;;;;;;;;;;13.71;33.33;99663.66;4983553;28;19961;-72
2023/02/06 08:33:43;;;;;;;;;;;;;;;13.37;33.91;99660.03;4971082;28;20286;-70
2023/02/06 08:36:09;;;;;;;;;;;;;;;13.05;33.82;99675.47;5003123;28;19927;-70
2023/02/06 08:38:34;;;;;;;;;;;;;;;12.75;34.06;99680.16;4987113;28;19921;-69
2023/02/06 08:41:00;;;;;;;;;;;;;;;12.52;34.12;99686.97;5007202;28;19921;-69
2023/02/06 08:43:25;;;;;;;;;;;;;;;12.19;34.29;99675.28;4975628;28;20411;-69
2023/02/06 08:45:50;;;;;;;;;;;;;;;12.01;34.49;99669.50;4978809;28;20024;-71
2023/02/06 08:48:16;;;;;;;;;;;;;;;11.90;34.32;99679.81;4974477;28;19975;-70
2023/02/06 08:50:41;;;;;;;;;;;;;;;11.67;34.35;99676.09;4992200;28;19964;-70
2023/02/06 08:53:06;;;;;;;;;;;;;;;12.25;32.72;99677.44;4994369;28;20286;-71
2023/02/06 08:55:32;;;;;;;;;;;;;;;11.89;32.88;99683.34;4983044;28;19949;-68
2023/02/06 08:57:57;;;;;;;;;;;;;;;11.81;33.19;99683.88;4965462;28;20404;-70
2023/02/06 09:00:22;;;;;;;;;;;;;;;11.92;31.81;99683.19;5004229;28;19940;-69
2023/02/06 09:02:47;;;;;;;;;;;;;;;11.94;36.90;99695.25;4979787;28;20373;-69
2023/02/06 09:05:14;;;;;;;;;;;;;;;12.46;33.88;99687.41;5004709;28;19918;-73
2023/02/06 09:07:39;;;;;;;;;;;;;;;12.27;33.15;99688.69;4977594;28;19975;-69
2023/02/06 09:10:05;;;;;;;;;;;;;;;12.89;32.31;99697.53;4987856;28;19917;-70
2023/02/06 09:12:30;;;;;;;;;;;;;;;12.63;32.10;99701.94;4986980;28;19918;-70
2023/02/06 09:14:55;;;;;;;;;;;;;;;13.16;30.95;99702.56;4977982;28;19924;-70
2023/02/06 09:17:21;;;;;;;;;;;;;;;13.52;30.77;99702.66;4981846;28;20012;-69
2023/02/06 09:19:46;;;;;;;;;;;;;;;13.99;29.49;99706.19;4982831;28;19994;-68
2023/02/06 09:22:11;;;;;;;;;;;;;;;13.71;28.93;99689.88;4987352;28;20005;-70
2023/02/06 09:24:37;;;;;;;;;;;;;;;14.19;28.42;99698.59;4987360;28;19965;-69
2023/02/06 09:27:02;;;;;;;;;;;;;;;14.46;27.97;99688.59;4972564;28;20016;-69
2023/02/06 09:29:28;;;;;;;;;;;;;;;15.15;26.81;99689.44;4988516;28;19921;-70
2023/02/06 09:31:53;;;;;;;;;;;;;;;15.76;25.93;99694.09;4988564;28;20393;-70
2023/02/06 09:34:18;;;;;;;;;;;;;;;16.00;25.39;99679.88;4986959;28;20037;-69
2023/02/06 09:36:44;;;;;;;;;;;;;;;16.34;24.46;99677.88;4985500;28;19922;-69
2023/02/06 09:39:10;;;;;;;;;;;;;;;16.65;24.19;99688.38;4987769;28;19933;-68
2023/02/06 09:41:35;;;;;;;;;;;;;;;17.04;23.42;99685.91;4987427;28;19968;-70
2023/02/06 09:44:04;;;;;;;;;;;;;;;16.89;35.99;99684.63;4985777;28;20423;-69
2023/02/06 09:46:30;;;;;;;;;;;;;;;16.87;38.74;99687.38;4972364;28;19917;-69
2023/02/06 09:48:56;;;;;;;;;;;;;;;16.96;40.71;99710.31;4972532;28;20612;-72
2023/02/06 09:51:27;;;;;;;;;;;;;;;16.95;35.50;99687.56;4976827;28;19929;-70
2023/02/06 09:54:13;;;;;;;;;;;;;;;17.08;36.22;99674.13;5003606;28;19928;-72
2023/02/06 09:56:43;;;;;;;;;;;;;;;17.94;38.64;99680.56;4986456;28;19933;-72
2023/02/06 09:59:27;;;;;;;;;;;;;;;17.92;32.12;99680.72;4985275;28;19917;-73
2023/02/06 10:01:59;;;;;;;;;;;;;;;17.92;28.96;99672.78;4980020;28;19922;-71
2023/02/06 10:04:24;;;;;;;;;;;;;;;17.68;27.31;99673.22;4977456;28;19918;-72
2023/02/06 10:06:49;;;;;;;;;;;;;;;17.78;39.05;99678.47;4980152;28;19921;-74
2023/02/06 10:09:16;;;;;;;;;;;;;;;17.86;30.85;99675.97;4986528;28;19922;-72
2023/02/06 10:11:47;;;;;;;;;;;;;;;17.69;29.14;99667.75;4985279;28;19922;-71
2023/02/06 10:14:22;;;;;;;;;;;;;;;17.62;27.92;99673.78;4984653;28;19925;-70
2023/02/06 10:16:47;;;;;;;;;;;;;;;17.50;27.01;99684.44;4985275;28;19917;-70
2023/02/06 10:19:14;;;;;;;;;;;;;;;17.97;43.38;99682.94;5013355;28;19924;-69
2023/02/06 10:21:42;;;;;;;;;;;;;;;18.79;40.60;99662.91;4980536;28;19925;-70
2023/02/06 10:24:22;;;;;;;;;;;;;;;19.37;38.19;99682.91;4996846;28;19976;-69
2023/02/06 10:26:48;;;;;;;;;;;;;;;19.59;34.43;99678.94;4996898;28;19921;-71
2023/02/06 10:29:17;;;;;;;;;;;;;;;19.39;28.91;99678.28;4986543;28;20315;-71
2023/02/06 10:32:01;;;;;;;;;;;;;;;19.14;26.76;99688.63;4981965;28;19960;-72
2023/02/06 10:34:30;;;;;;;;;;;;;;;18.84;24.77;99673.91;5007344;28;19918;-72
2023/02/06 10:37:09;;;;;;;;;;;;;;;19.08;38.51;99660.09;4996511;28;19924;-69
2023/02/06 10:39:34;;;;;;;;;;;;;;;19.42;35.56;99672.69;4995214;28;19972;-71
2023/02/06 10:42:14;;;;;;;;;;;;;;;19.45;34.62;99669.75;5000691;28;20363;-72
2023/02/06 10:44:45;;;;;;;;;;;;;;;19.36;34.25;99670.66;4981860;28;20040;-72
2023/02/06 10:47:23;;;;;;;;;;;;;;;19.34;34.31;99669.97;4982956;28;19921;-69
2023/02/06 10:49:54;;;;;;;;;;;;;;;19.32;33.27;99671.91;4985736;28;19928;-72
2023/02/06 10:52:23;;;;;;;;;;;;;;;19.20;33.44;99689.84;4984249;28;19929;-72
2023/02/06 10:54:54;;;;;;;;;;;;;;;19.13;32.27;99672.88;4969898;28;19949;-71
2023/02/06 10:57:20;;;;;;;;;;;;;;;18.83;33.83;99680.13;4985836;28;19921;-70
2023/02/06 10:59:47;;;;;;;;;;;;;;;18.75;33.87;99685.31;4970676;28;19949;-73
2023/02/06 11:02:20;;;;;;;;;;;;;;;18.71;34.11;99687.44;4983500;28;19984;-76
2023/02/06 11:04:45;;;;;;;;;;;;;;;18.73;33.99;99690.75;4984404;28;19913;-74
2023/02/06 11:07:19;;;;;;;;;;;;;;;18.60;33.71;99684.97;5002141;28;19925;-74
2023/02/06 11:09:45;;;;;;;;;;;;;;;18.42;33.16;99692.81;4985201;28;20013;-70
2023/02/06 11:12:30;;;;;;;;;;;;;;;18.29;34.80;99679.09;4983441;28;20009;-72
2023/02/06 11:14:56;;;;;;;;;;;;;;;18.07;35.03;99695.16;4982719;28;19981;-72
2023/02/06 11:17:22;;;;;;;;;;;;;;;17.95;30.45;99688.38;4969932;28;19918;-69
2023/02/06 11:19:48;;;;;;;;;;;;;;;17.70;35.17;99697.66;4994482;28;20304;-70
2023/02/06 11:22:17;;;;;;;;;;;;;;;17.50;33.58;99681.81;4991013;28;20384;-70
2023/02/06 11:24:57;;;;;;;;;;;;;;;17.28;35.84;99667.06;4979050;28;20324;-71
2023/02/06 11:27:23;;;;;;;;;;;;;;;17.08;34.04;99689.97;4995952;28;19987;-69
2023/02/06 11:29:48;;;;;;;;;;;;;;;16.78;33.25;99683.75;4979377;28;20286;-70
2023/02/06 11:32:43;;;;;;;;;;;;;;;16.55;32.39;99672.53;4995655;28;19975;-70
2023/02/06 11:35:22;;;;;;;;;;;;;;;16.32;31.51;99669.28;4914527;29;19925;-68
2023/02/06 11:37:50;;;;;;;;;;;;;;;15.99;31.16;99673.78;4898735;29;20027;-69
2023/02/06 11:40:16;;;;;;;;;;;;;;;15.78;30.45;99694.00;4883039;29;20375;-70
2023/02/06 11:42:41;;;;;;;;;;;;;;;15.48;30.22;99670.06;4914421;29;19975;-72
2023/02/06 11:45:21;;;;;;;;;;;;;;;15.20;30.38;99664.41;4898913;29;20096;-70
2023/02/06 11:47:47;;;;;;;;;;;;;;;14.99;30.06;99679.28;4914471;29;20033;-70
2023/02/06 11:50:12;;;;;;;;;;;;;;;14.77;30.00;99675.72;4899077;29;20379;-70
2023/02/06 11:52:37;;;;;;;;;;;;;;;14.47;29.97;99671.06;4898557;29;20025;-69
2023/02/06 11:55:03;;;;;;;;;;;;;;;14.25;30.49;99671.88;4882535;29;19923;-70
2023/02/06 11:57:29;;;;;;;;;;;;;;;14.05;30.51;99673.38;4897052;29;20030;-70
2023/02/06 11:59:58;;;;;;;;;;;;;;;13.85;30.47;99685.38;4895297;29;20331;-70
2023/02/06 12:02:28;;;;;;;;;;;;;;;13.66;30.59;99675.41;4870745;29;19923;-72
2023/02/06 12:05:12;;;;;;;;;;;;;;;13.48;30.55;99667.97;4888069;29;19923;-72
2023/02/06 12:07:47;;;;;;;;;;;;;;;13.28;30.43;99679.03;4879301;29;20018;-70
2023/02/06 12:10:12;;;;;;;;;;;;;;;13.12;30.50;99661.78;4905090;29;19924;-70
2023/02/06 12:12:39;;;;;;;;;;;;;;;12.95;30.31;99675.25;4964785;28;20108;-69
2023/02/06 12:15:14;;;;;;;;;;;;;;;12.70;29.94;99678.78;4969506;28;20024;-71
2023/02/06 12:17:40;;;;;;;;;;;;;;;12.54;30.04;99681.63;4970153;28;19922;-69
2023/02/06 12:20:15;;;;;;;;;;;;;;;12.37;30.06;99675.78;4972761;28;19967;-68
2023/02/06 12:22:45;;;;;;;;;;;;;;;12.21;30.01;99678.63;4988334;28;19940;-69
2023/02/06 12:25:30;;;;;;;;;;;;;;;12.10;30.22;99683.75;4988433;28;19921;-69
2023/02/06 12:27:57;;;;;;;;;;;;;;;11.92;30.20;99694.50;5004208;28;20389;-71
2023/02/06 12:30:28;;;;;;;;;;;;;;;11.76;30.19;99701.66;4973004;28;20650;-72
2023/02/06 12:32:59;;;;;;;;;;;;;;;11.61;30.61;99694.78;4987053;28;19965;-71
2023/02/06 12:35:35;;;;;;;;;;;;;;;11.55;37.77;99699.50;4986271;28;19980;-71
2023/02/06 12:38:06;;;;;;;;;;;;;;;11.44;35.65;99706.38;4986862;28;19924;-69
2023/02/06 12:40:37;;;;;;;;;;;;;;;11.30;37.05;99704.63;4970875;28;19976;-69
2023/02/06 12:43:02;;;;;;;;;;;;;;;11.14;36.83;99710.84;4985930;28;19928;-69
2023/02/06 12:45:31;;;;;;;;;;;;;;;11.07;36.36;99721.75;4988554;28;19917;-70
2023/02/06 12:47:58;;;;;;;;;;;;;;;10.93;35.54;99710.41;4972231;28;19922;-71
2023/02/06 12:50:37;;;;;;;;;;;;;;;10.79;35.25;99716.47;4985877;28;19925;-73
2023/02/06 12:53:14;;;;;;;;;;;;;;;10.65;34.83;99717.31;4972713;28;20309;-75